Central Wisconsin Airport
KCWA : now visible

Airfield :











YOU CAN JOIN US ON...

 
LOGIN :

Register | Disclaimer

   EN    FR    IT 

 









Legend :    VFR   Marginal VFR   IFR   Intensive IFR   Very Intensive IFR
Visi :
Ceiling :
>= 8 km
>= 3000ft
5 to 8 km
1000 to 3000 ft
1500m to 5 km
500 to 1000 ft
800 to 1500m
200 to 500 ft
< 800m
< 200 ft
Symbols :   Thunderstorms  Fog  Heavy snow  Heavy precipitations  Wind > 20 kt






- Airport Elevation : 1277 ft


KCWA - Central Wisconsin

CURRENT METAR :
  • 261645Z 36016G20KT 10SM OVC030 M04/M11 A3020

EXPIRED METARs :
  • 261554Z 34009G16KT 10SM OVC028 M06/M11 A3021 -SN
  • 261447Z 36009KT 10SM OVC026 M06/M11 A3022

TAF KCWA
Valid from the 26 at 12:00 until the 27 at 12:00 UTC


261129Z 2612/2712 36009KT P6SM SCT022 OVC035
TEMPO 2612/2616 BKN022
FM261600 35010G15KT P6SM BKN020
FM261900 34010G15KT P6SM -SHSN BKN022
FM262300 34008KT P6SM -SHSN SCT024 BKN030
FM270100 33006KT P6SM SCT024 SCT060



MET'MAP, your aeronautical weather chart ! - Copyright ORBIFLY December 2007 - Disclaimer

ORBIFLY MET'MAP TEAM :

Programming & Development : Alexandra Zaïnal
Concept & original design : Baudouin d'Aumeries
Assistance for programming : Marc-Olivier Méhu
Technical & hardware support : Manuel Goepfert

Contact : metmap@orbifly.com




SOURCES & CREDITS :

   NOAA       Earth
Advisory